Time;durP1;ratioP1;P1;durP2;ratioP2;P2;SDS_P1;SDS_P2;PMS_P1;PMS_P2;Temp;Humidity;BMP_temperature;BMP_pressure;BME280_temperature;BME280_humidity;BME280_pressure;Samples;Min_cycle;Max_cycle;Signal;HPM_P1;HPM_P2
2022/08/06 00:02:07;;;;;;;4.57;2.20;;;;;;;;;;10479586;28;20024;-55
2022/08/06 00:07:08;;;;;;;5.15;1.85;;;;;;;;;;10489972;28;20032;-48
2022/08/06 00:12:09;;;;;;;7.72;2.05;;;;;;;;;;10462334;28;20492;-49
2022/08/06 00:17:10;;;;;;;4.28;1.55;;;;;;;;;;10452717;28;20044;-47
2022/08/06 00:22:10;;;;;;;5.07;1.90;;;;;;;;;;10458270;28;20057;-47
2022/08/06 00:27:11;;;;;;;5.50;2.08;;;;;;;;;;10452433;28;20511;-49
2022/08/06 00:32:11;;;;;;;1.70;1.52;;;;;;;;;;10466222;28;20361;-47
2022/08/06 00:37:12;;;;;;;2.00;1.63;;;;;;;;;;10462878;28;20439;-48
2022/08/06 00:42:13;;;;;;;3.55;1.80;;;;;;;;;;10452744;28;20365;-51
2022/08/06 00:47:13;;;;;;;5.25;1.65;;;;;;;;;;10471504;28;20028;-49
2022/08/06 00:52:14;;;;;;;2.85;1.70;;;;;;;;;;10464246;28;20079;-50
2022/08/06 00:57:14;;;;;;;1.70;1.60;;;;;;;;;;10466242;28;20037;-47
2022/08/06 01:02:15;;;;;;;2.50;1.77;;;;;;;;;;10452261;28;20476;-50
2022/08/06 01:07:15;;;;;;;2.38;1.48;;;;;;;;;;10450849;28;20133;-47
2022/08/06 01:12:17;;;;;;;2.30;1.80;;;;;;;;;;10464868;28;20051;-46
2022/08/06 01:17:38;;;;;;;2.33;1.45;;;;;;;;;;10457241;28;20021;-47
2022/08/06 01:22:54;;;;;;;3.53;1.50;;;;;;;;;;10455451;28;20452;-47
2022/08/06 01:28:13;;;;;;;4.40;1.70;;;;;;;;;;10463626;28;20024;-48
2022/08/06 01:33:33;;;;;;;1.90;1.70;;;;;;;;;;10454025;28;20526;-49
2022/08/06 01:38:40;;;;;;;2.00;1.60;;;;;;;;;;10450042;28;20029;-49
2022/08/06 01:43:43;;;;;;;3.28;1.50;;;;;;;;;;10461845;28;20052;-47
2022/08/06 01:48:44;;;;;;;2.40;1.77;;;;;;;;;;10473440;28;20406;-48
2022/08/06 01:53:45;;;;;;;7.35;1.30;;;;;;;;;;10462209;28;20055;-53
2022/08/06 01:58:49;;;;;;;2.53;1.65;;;;;;;;;;10454880;28;20127;-45
2022/08/06 02:03:55;;;;;;;6.32;1.67;;;;;;;;;;10446986;28;20112;-45
2022/08/06 02:09:00;;;;;;;1.48;1.23;;;;;;;;;;10463108;28;20488;-46
2022/08/06 02:14:02;;;;;;;2.67;1.67;;;;;;;;;;10473389;28;20040;-45
2022/08/06 02:19:05;;;;;;;4.28;1.30;;;;;;;;;;10455133;28;20074;-46
2022/08/06 02:24:08;;;;;;;1.50;1.40;;;;;;;;;;10462933;28;20472;-46
2022/08/06 02:29:14;;;;;;;2.10;1.35;;;;;;;;;;10474930;28;20037;-46
2022/08/06 02:34:15;;;;;;;1.23;1.13;;;;;;;;;;10448411;28;20104;-45
2022/08/06 02:39:33;;;;;;;1.40;1.20;;;;;;;;;;10467676;28;20104;-46
2022/08/06 02:45:14;;;;;;;1.48;1.30;;;;;;;;;;10454789;28;20029;-46
2022/08/06 02:50:21;;;;;;;2.25;1.63;;;;;;;;;;10453200;28;20485;-46
2022/08/06 02:55:28;;;;;;;2.80;1.42;;;;;;;;;;10465630;28;20060;-48
2022/08/06 03:00:32;;;;;;;1.40;1.30;;;;;;;;;;10468893;28;20043;-46
2022/08/06 03:05:33;;;;;;;5.38;1.40;;;;;;;;;;10477372;28;20041;-55
2022/08/06 03:10:35;;;;;;;2.42;1.30;;;;;;;;;;10474117;28;20072;-53
2022/08/06 03:15:37;;;;;;;1.40;1.23;;;;;;;;;;10480157;28;20065;-48
2022/08/06 03:20:41;;;;;;;1.88;1.48;;;;;;;;;;10474817;28;20086;-55
2022/08/06 03:25:43;;;;;;;2.63;1.30;;;;;;;;;;10474750;28;20383;-50
2022/08/06 03:30:45;;;;;;;2.28;1.25;;;;;;;;;;10471820;28;20379;-50
2022/08/06 03:35:48;;;;;;;1.83;1.35;;;;;;;;;;10466858;28;20550;-51
2022/08/06 03:40:49;;;;;;;4.47;1.60;;;;;;;;;;10455663;28;20035;-50
2022/08/06 03:45:59;;;;;;;1.10;1.00;;;;;;;;;;10480834;28;20476;-49
2022/08/06 03:51:04;;;;;;;2.95;1.75;;;;;;;;;;10473619;28;20063;-50
2022/08/06 03:56:08;;;;;;;1.13;1.05;;;;;;;;;;10466486;28;20429;-53
2022/08/06 04:01:17;;;;;;;1.65;1.15;;;;;;;;;;10467142;28;20013;-50
2022/08/06 04:06:21;;;;;;;1.75;1.23;;;;;;;;;;10452794;28;20116;-52
2022/08/06 04:11:23;;;;;;;1.10;1.00;;;;;;;;;;10452686;28;20021;-51
2022/08/06 04:16:23;;;;;;;1.10;1.00;;;;;;;;;;10458024;28;20259;-48
2022/08/06 04:21:24;;;;;;;1.70;1.30;;;;;;;;;;10480316;28;20272;-49
2022/08/06 04:26:28;;;;;;;1.50;1.40;;;;;;;;;;10475956;28;20032;-51
2022/08/06 04:31:29;;;;;;;1.50;1.30;;;;;;;;;;10480744;28;20078;-51
2022/08/06 04:36:30;;;;;;;1.30;1.00;;;;;;;;;;10461740;28;20033;-53
2022/08/06 04:41:32;;;;;;;2.92;1.23;;;;;;;;;;10467383;28;20360;-51
2022/08/06 04:46:34;;;;;;;1.10;1.00;;;;;;;;;;10451722;28;20184;-49
2022/08/06 04:51:37;;;;;;;3.15;1.15;;;;;;;;;;10474439;28;20391;-54
2022/08/06 04:56:37;;;;;;;4.80;1.30;;;;;;;;;;10491717;28;20032;-51
2022/08/06 05:01:38;;;;;;;1.20;1.10;;;;;;;;;;10486489;28;20036;-52
2022/08/06 05:06:59;;;;;;;1.67;1.10;;;;;;;;;;10485729;28;20029;-49
2022/08/06 05:12:11;;;;;;;2.28;1.00;;;;;;;;;;10481677;28;20028;-54
2022/08/06 05:17:16;;;;;;;0.80;0.80;;;;;;;;;;10479794;28;20124;-54
2022/08/06 05:22:19;;;;;;;1.20;1.10;;;;;;;;;;10483909;28;20028;-53
2022/08/06 05:27:20;;;;;;;1.15;1.05;;;;;;;;;;10473446;28;20036;-53
2022/08/06 05:32:21;;;;;;;3.97;1.10;;;;;;;;;;10490342;28;20086;-51
2022/08/06 05:37:22;;;;;;;4.20;1.50;;;;;;;;;;10489678;28;20028;-54
2022/08/06 05:42:22;;;;;;;1.75;1.00;;;;;;;;;;10484883;28;20472;-54
2022/08/06 05:47:27;;;;;;;1.25;1.10;;;;;;;;;;10490543;28;20021;-54
2022/08/06 05:52:29;;;;;;;0.98;0.98;;;;;;;;;;10489153;28;20279;-55
2022/08/06 05:57:46;;;;;;;5.72;1.10;;;;;;;;;;10488282;28;20028;-49
2022/08/06 06:02:50;;;;;;;3.45;1.20;;;;;;;;;;10477849;28;20085;-49
2022/08/06 06:07:52;;;;;;;1.40;1.30;;;;;;;;;;10487637;28;20235;-52
2022/08/06 06:12:54;;;;;;;1.50;1.00;;;;;;;;;;10484885;28;20180;-50
2022/08/06 06:18:15;;;;;;;2.90;1.15;;;;;;;;;;10477425;28;20027;-53
2022/08/06 06:23:21;;;;;;;1.20;1.10;;;;;;;;;;10474855;28;20043;-53
2022/08/06 06:28:32;;;;;;;2.90;1.08;;;;;;;;;;10476185;28;20029;-52
2022/08/06 06:33:44;;;;;;;0.80;0.80;;;;;;;;;;10496740;28;20086;-50
2022/08/06 06:39:03;;;;;;;2.10;1.33;;;;;;;;;;10489489;28;20036;-54
2022/08/06 06:44:21;;;;;;;1.20;1.10;;;;;;;;;;10496675;28;20024;-50
2022/08/06 06:49:33;;;;;;;1.95;1.10;;;;;;;;;;10497635;28;20028;-50
2022/08/06 06:54:44;;;;;;;2.28;1.02;;;;;;;;;;10488280;28;20048;-54
2022/08/06 06:59:51;;;;;;;1.20;1.10;;;;;;;;;;10488856;28;20515;-49
2022/08/06 07:04:54;;;;;;;1.43;1.10;;;;;;;;;;10488979;28;20024;-55
2022/08/06 07:09:56;;;;;;;1.70;1.20;;;;;;;;;;10482792;28;20020;-51
2022/08/06 07:14:59;;;;;;;1.30;1.20;;;;;;;;;;10495192;28;20039;-51
2022/08/06 07:20:07;;;;;;;2.33;1.20;;;;;;;;;;10482060;28;20032;-52
2022/08/06 07:25:11;;;;;;;3.20;1.27;;;;;;;;;;10466861;28;20450;-53
2022/08/06 07:30:17;;;;;;;1.90;1.10;;;;;;;;;;10477995;28;20108;-55
2022/08/06 07:35:19;;;;;;;8.25;1.13;;;;;;;;;;10461838;28;20087;-54
2022/08/06 07:40:26;;;;;;;2.72;1.30;;;;;;;;;;10465641;28;20108;-53
2022/08/06 07:45:31;;;;;;;5.25;1.20;;;;;;;;;;10477287;28;20033;-56
2022/08/06 07:50:32;;;;;;;2.70;1.40;;;;;;;;;;10460023;28;20112;-55
2022/08/06 07:55:34;;;;;;;3.03;2.03;;;;;;;;;;10493095;28;20044;-56
2022/08/06 08:00:35;;;;;;;7.18;2.17;;;;;;;;;;10489489;28;20404;-57
2022/08/06 08:10:58;;;;;;;4.40;2.22;;;;;;;;;;10478525;28;20036;-55
2022/08/06 08:15:59;;;;;;;3.45;2.20;;;;;;;;;;10491547;28;20090;-57
2022/08/06 08:21:01;;;;;;;5.55;2.22;;;;;;;;;;10477989;28;20079;-49
2022/08/06 08:26:03;;;;;;;3.45;2.50;;;;;;;;;;10484724;28;20043;-52
2022/08/06 08:31:05;;;;;;;5.32;2.60;;;;;;;;;;10474485;28;20065;-56
2022/08/06 08:36:07;;;;;;;2.95;2.22;;;;;;;;;;10456099;28;20074;-54
2022/08/06 08:41:18;;;;;;;4.05;2.30;;;;;;;;;;10466308;28;20036;-56
2022/08/06 08:46:19;;;;;;;5.45;2.58;;;;;;;;;;10456838;28;20094;-55
2022/08/06 08:51:21;;;;;;;3.30;2.45;;;;;;;;;;10454206;28;20533;-55
2022/08/06 08:56:22;;;;;;;6.32;2.60;;;;;;;;;;10474679;28;20040;-56
2022/08/06 09:01:23;;;;;;;5.53;2.25;;;;;;;;;;10492139;28;20466;-56
2022/08/06 09:06:24;;;;;;;7.45;2.65;;;;;;;;;;10477041;28;20029;-57
2022/08/06 09:11:25;;;;;;;2.67;2.30;;;;;;;;;;10485131;28;20059;-56
2022/08/06 09:16:25;;;;;;;3.80;2.55;;;;;;;;;;10479442;28;20517;-56
2022/08/06 09:21:28;;;;;;;12.60;2.58;;;;;;;;;;10483312;28;20401;-57
2022/08/06 09:26:29;;;;;;;5.18;2.80;;;;;;;;;;10463724;28;20082;-58
2022/08/06 09:31:36;;;;;;;6.95;2.42;;;;;;;;;;10449918;28;20021;-57
2022/08/06 09:36:46;;;;;;;11.30;2.92;;;;;;;;;;10476693;28;20036;-56
2022/08/06 09:41:48;;;;;;;7.93;2.83;;;;;;;;;;10463666;28;20051;-54
2022/08/06 09:46:49;;;;;;;7.90;2.83;;;;;;;;;;10461762;28;20044;-56
2022/08/06 09:51:50;;;;;;;6.07;2.50;;;;;;;;;;10458218;28;20191;-55
2022/08/06 09:56:59;;;;;;;9.52;2.80;;;;;;;;;;10465663;28;20024;-57
2022/08/06 10:02:00;;;;;;;7.57;2.60;;;;;;;;;;10487443;28;20429;-56
2022/08/06 10:07:01;;;;;;;10.10;2.65;;;;;;;;;;10478736;28;20033;-56
2022/08/06 10:12:15;;;;;;;8.60;2.35;;;;;;;;;;10481588;28;20395;-57
2022/08/06 10:17:21;;;;;;;7.72;2.78;;;;;;;;;;10475008;28;20255;-52
2022/08/06 10:22:21;;;;;;;6.82;2.65;;;;;;;;;;10460811;28;20388;-56
2022/08/06 10:27:35;;;;;;;4.55;2.30;;;;;;;;;;10474638;28;20020;-57
2022/08/06 10:32:58;;;;;;;9.65;3.00;;;;;;;;;;10477869;28;20368;-55
2022/08/06 10:38:03;;;;;;;9.65;2.80;;;;;;;;;;10483247;28;20112;-57
2022/08/06 10:43:06;;;;;;;8.60;2.97;;;;;;;;;;10451742;28;20021;-57
2022/08/06 10:48:08;;;;;;;3.28;2.20;;;;;;;;;;10470352;28;20032;-57
2022/08/06 10:53:10;;;;;;;3.35;2.15;;;;;;;;;;10462369;28;20048;-56
2022/08/06 10:58:11;;;;;;;4.53;2.33;;;;;;;;;;10451375;28;20021;-57
2022/08/06 11:03:34;;;;;;;5.57;2.42;;;;;;;;;;10453026;28;20044;-57
2022/08/06 11:09:15;;;;;;;7.15;2.85;;;;;;;;;;10467033;28;20032;-55
2022/08/06 11:14:18;;;;;;;3.40;2.10;;;;;;;;;;10487470;28;20077;-56
2022/08/06 11:19:18;;;;;;;4.55;2.30;;;;;;;;;;10475204;28;20024;-57
2022/08/06 11:24:19;;;;;;;4.07;2.60;;;;;;;;;;10484995;28;20391;-54
2022/08/06 11:29:20;;;;;;;4.60;2.13;;;;;;;;;;10477909;28;20047;-56
2022/08/06 11:34:20;;;;;;;5.80;2.10;;;;;;;;;;10463213;28;20029;-56
2022/08/06 11:39:24;;;;;;;6.78;2.13;;;;;;;;;;10471381;28;20050;-56
2022/08/06 11:44:32;;;;;;;3.13;2.00;;;;;;;;;;10480313;28;20111;-56
2022/08/06 11:49:42;;;;;;;3.83;2.13;;;;;;;;;;10472562;28;20039;-56
2022/08/06 11:54:48;;;;;;;4.88;1.98;;;;;;;;;;10480964;28;20037;-56
2022/08/06 11:59:55;;;;;;;3.92;2.25;;;;;;;;;;10487342;28;20052;-54
2022/08/06 12:04:56;;;;;;;5.15;2.17;;;;;;;;;;10480299;28;20103;-56
2022/08/06 12:10:07;;;;;;;7.25;2.13;;;;;;;;;;10485967;28;20074;-55
2022/08/06 12:15:22;;;;;;;3.97;1.95;;;;;;;;;;10458377;28;20591;-54
2022/08/06 12:20:41;;;;;;;6.47;1.85;;;;;;;;;;10458108;28;20071;-54
2022/08/06 12:25:47;;;;;;;3.80;2.00;;;;;;;;;;10458457;28;20407;-56
2022/08/06 12:30:54;;;;;;;3.65;2.10;;;;;;;;;;10459163;28;20395;-54
2022/08/06 12:36:00;;;;;;;3.53;2.05;;;;;;;;;;10475735;28;20430;-57
2022/08/06 12:41:09;;;;;;;2.05;1.83;;;;;;;;;;10479786;28;20513;-56
2022/08/06 12:46:09;;;;;;;2.92;2.10;;;;;;;;;;10491109;28;20021;-57
2022/08/06 12:51:13;;;;;;;5.72;2.15;;;;;;;;;;10485116;28;20028;-57
2022/08/06 12:56:16;;;;;;;4.72;2.00;;;;;;;;;;10492001;28;20468;-56
2022/08/06 13:01:21;;;;;;;7.22;2.33;;;;;;;;;;10478135;28;20032;-57
2022/08/06 13:06:26;;;;;;;4.28;1.90;;;;;;;;;;10479400;28;20020;-58
2022/08/06 13:11:32;;;;;;;6.95;2.20;;;;;;;;;;10476913;28;20043;-57
2022/08/06 13:16:41;;;;;;;4.53;2.40;;;;;;;;;;10473069;28;20059;-57
2022/08/06 13:21:45;;;;;;;5.47;2.33;;;;;;;;;;10469778;28;20033;-54
2022/08/06 13:26:53;;;;;;;5.75;2.40;;;;;;;;;;10460427;28;20041;-54
2022/08/06 13:32:10;;;;;;;10.30;2.67;;;;;;;;;;10464484;28;20473;-53
2022/08/06 13:37:11;;;;;;;12.55;2.70;;;;;;;;;;10458580;28;20040;-55
2022/08/06 13:42:11;;;;;;;16.85;3.28;;;;;;;;;;10450857;28;20033;-56
2022/08/06 13:47:24;;;;;;;8.85;3.58;;;;;;;;;;10449336;28;20044;-52
2022/08/06 13:52:25;;;;;;;22.85;5.00;;;;;;;;;;10469834;28;20037;-55
2022/08/06 13:57:28;;;;;;;13.15;4.82;;;;;;;;;;10481931;28;20032;-52
2022/08/06 14:02:31;;;;;;;12.88;4.53;;;;;;;;;;10448978;28;20595;-53
2022/08/06 14:07:32;;;;;;;18.00;4.30;;;;;;;;;;10463201;28;20025;-53
2022/08/06 14:12:32;;;;;;;9.90;4.45;;;;;;;;;;10449549;28;20033;-54
2022/08/06 14:17:33;;;;;;;12.20;4.75;;;;;;;;;;10460011;28;20036;-55
2022/08/06 14:22:34;;;;;;;16.38;4.82;;;;;;;;;;10462764;28;20079;-54
2022/08/06 14:27:34;;;;;;;19.20;3.97;;;;;;;;;;10451673;28;20025;-46
2022/08/06 14:32:35;;;;;;;11.98;3.83;;;;;;;;;;10480138;28;20117;-48
2022/08/06 14:37:36;;;;;;;10.75;4.05;;;;;;;;;;10478364;28;20454;-47
2022/08/06 14:47:56;;;;;;;8.60;3.47;;;;;;;;;;10493745;28;20012;-48
2022/08/06 14:52:57;;;;;;;16.77;4.50;;;;;;;;;;10497256;28;20048;-47
2022/08/06 14:57:58;;;;;;;10.75;4.18;;;;;;;;;;10497592;28;20051;-50
2022/08/06 15:02:58;;;;;;;10.93;3.75;;;;;;;;;;10497018;28;20016;-49
2022/08/06 15:07:59;;;;;;;8.82;3.47;;;;;;;;;;10482755;28;20032;-47
2022/08/06 15:12:59;;;;;;;11.00;3.58;;;;;;;;;;10489210;28;20028;-51
2022/08/06 15:18:00;;;;;;;8.27;3.30;;;;;;;;;;10470090;28;20037;-47
2022/08/06 15:23:01;;;;;;;13.07;3.67;;;;;;;;;;10454908;28;20491;-46
2022/08/06 15:28:01;;;;;;;6.85;3.17;;;;;;;;;;10467529;28;20029;-46
2022/08/06 15:33:03;;;;;;;10.18;3.58;;;;;;;;;;10454357;28;20106;-46
2022/08/06 15:38:03;;;;;;;10.32;3.05;;;;;;;;;;10455807;28;20108;-47
2022/08/06 15:43:04;;;;;;;9.05;3.10;;;;;;;;;;10484752;28;20029;-48
2022/08/06 15:48:05;;;;;;;11.98;3.35;;;;;;;;;;10495315;28;20024;-45
2022/08/06 15:53:05;;;;;;;5.75;2.83;;;;;;;;;;10491567;28;20044;-46
2022/08/06 15:58:06;;;;;;;5.97;2.78;;;;;;;;;;10494359;28;20082;-46
2022/08/06 16:03:10;;;;;;;6.15;3.08;;;;;;;;;;10480429;28;20021;-51
2022/08/06 16:08:12;;;;;;;6.60;3.10;;;;;;;;;;10494745;28;20020;-47
2022/08/06 16:13:18;;;;;;;8.98;3.10;;;;;;;;;;10486419;28;20028;-46
2022/08/06 16:18:21;;;;;;;4.03;2.70;;;;;;;;;;10477450;28;20029;-47
2022/08/06 16:23:22;;;;;;;3.80;2.78;;;;;;;;;;10481741;28;20487;-47
2022/08/06 16:28:22;;;;;;;8.38;2.92;;;;;;;;;;10492641;28;20035;-52
2022/08/06 16:33:23;;;;;;;5.95;2.70;;;;;;;;;;10482498;28;20120;-46
2022/08/06 16:38:24;;;;;;;9.38;2.70;;;;;;;;;;10492325;28;20025;-46
2022/08/06 16:43:25;;;;;;;4.80;2.75;;;;;;;;;;10492205;28;20503;-51
2022/08/06 16:48:26;;;;;;;9.38;2.70;;;;;;;;;;10491614;28;20062;-46
2022/08/06 16:53:26;;;;;;;4.28;2.60;;;;;;;;;;10492267;28;20094;-46
2022/08/06 16:58:27;;;;;;;4.95;2.55;;;;;;;;;;10481450;28;20048;-46
2022/08/06 17:03:27;;;;;;;3.60;2.28;;;;;;;;;;10482996;28;20020;-46
2022/08/06 17:08:28;;;;;;;6.88;2.67;;;;;;;;;;10485886;28;20036;-46
2022/08/06 17:13:29;;;;;;;6.18;2.10;;;;;;;;;;10484991;28;20090;-45
2022/08/06 17:18:29;;;;;;;6.45;2.33;;;;;;;;;;10477075;28;20032;-46
2022/08/06 17:23:30;;;;;;;6.25;2.28;;;;;;;;;;10461283;28;20032;-46
2022/08/06 17:28:31;;;;;;;3.03;1.85;;;;;;;;;;10462649;28;20299;-45
2022/08/06 17:33:32;;;;;;;3.03;2.13;;;;;;;;;;10449915;28;20029;-46
2022/08/06 17:38:32;;;;;;;10.73;2.05;;;;;;;;;;10463410;28;20376;-46
2022/08/06 17:43:33;;;;;;;3.58;2.00;;;;;;;;;;10463398;28;20062;-47
2022/08/06 17:48:36;;;;;;;6.40;2.08;;;;;;;;;;10458930;28;20028;-49
2022/08/06 17:53:36;;;;;;;3.38;1.95;;;;;;;;;;10469887;28;20051;-46
2022/08/06 17:58:37;;;;;;;7.68;2.30;;;;;;;;;;10477038;28;20494;-45
2022/08/06 18:03:37;;;;;;;3.45;2.00;;;;;;;;;;10451797;28;20036;-46
2022/08/06 18:08:39;;;;;;;5.45;2.20;;;;;;;;;;10472159;28;20044;-46
2022/08/06 18:13:39;;;;;;;2.63;1.90;;;;;;;;;;10473342;28;20103;-46
2022/08/06 18:18:40;;;;;;;6.68;1.80;;;;;;;;;;10463445;28;20024;-46
2022/08/06 18:23:41;;;;;;;4.05;1.70;;;;;;;;;;10478227;28;20033;-47
2022/08/06 18:28:41;;;;;;;3.20;1.90;;;;;;;;;;10494158;28;20032;-46
2022/08/06 18:33:42;;;;;;;1.60;1.50;;;;;;;;;;10494646;28;20032;-46
2022/08/06 18:38:43;;;;;;;3.03;1.70;;;;;;;;;;10486285;28;20476;-45
2022/08/06 18:43:45;;;;;;;5.13;1.60;;;;;;;;;;10493604;28;20105;-50
2022/08/06 18:48:46;;;;;;;5.50;2.30;;;;;;;;;;10494042;28;20516;-48
2022/08/06 18:53:47;;;;;;;2.08;1.60;;;;;;;;;;10495562;28;20048;-46
2022/08/06 18:58:48;;;;;;;7.20;1.67;;;;;;;;;;10486855;28;20028;-46
2022/08/06 19:03:49;;;;;;;1.80;1.60;;;;;;;;;;10491035;28;20032;-46
2022/08/06 19:08:49;;;;;;;3.22;1.65;;;;;;;;;;10489110;28;20024;-47
2022/08/06 19:13:50;;;;;;;4.22;1.90;;;;;;;;;;10486697;28;20036;-46
2022/08/06 19:18:51;;;;;;;3.20;1.80;;;;;;;;;;10479000;28;20028;-47
2022/08/06 19:23:53;;;;;;;2.28;1.50;;;;;;;;;;10467121;28;20028;-46
2022/08/06 19:28:53;;;;;;;4.00;1.50;;;;;;;;;;10483760;28;20028;-49
2022/08/06 19:33:54;;;;;;;5.75;1.30;;;;;;;;;;10469245;28;20361;-46
2022/08/06 19:38:54;;;;;;;5.72;1.20;;;;;;;;;;10486923;28;20459;-50
2022/08/06 19:43:55;;;;;;;5.53;1.02;;;;;;;;;;10487895;28;20252;-49
2022/08/06 19:48:56;;;;;;;4.70;1.30;;;;;;;;;;10471131;28;20029;-48
2022/08/06 19:53:58;;;;;;;3.55;1.38;;;;;;;;;;10472654;28;20503;-49
2022/08/06 19:59:00;;;;;;;5.13;1.23;;;;;;;;;;10459897;28;20498;-54
2022/08/06 20:04:00;;;;;;;9.13;1.77;;;;;;;;;;10457826;28;20487;-50
2022/08/06 20:09:01;;;;;;;3.80;1.48;;;;;;;;;;10463005;28;20029;-52
2022/08/06 20:14:02;;;;;;;18.38;2.22;;;;;;;;;;10461949;28;20033;-47
2022/08/06 20:19:02;;;;;;;7.75;1.88;;;;;;;;;;10463463;28;20047;-48
2022/08/06 20:24:03;;;;;;;5.50;2.25;;;;;;;;;;10461230;28;20645;-47
2022/08/06 20:29:06;;;;;;;11.77;2.53;;;;;;;;;;10458950;28;20388;-50
2022/08/06 20:34:06;;;;;;;6.03;1.98;;;;;;;;;;10463805;28;20369;-55
2022/08/06 20:39:07;;;;;;;6.35;1.98;;;;;;;;;;10482340;28;20025;-54
2022/08/06 20:44:07;;;;;;;8.13;1.88;;;;;;;;;;10473891;28;20028;-56
2022/08/06 20:49:08;;;;;;;9.23;1.90;;;;;;;;;;10482809;28;20032;-55
2022/08/06 20:54:09;;;;;;;3.03;1.50;;;;;;;;;;10490961;28;20033;-56
2022/08/06 20:59:11;;;;;;;3.63;1.60;;;;;;;;;;10487527;28;20480;-57
2022/08/06 21:04:11;;;;;;;4.90;1.55;;;;;;;;;;10491092;28;20032;-57
2022/08/06 21:09:12;;;;;;;4.35;1.65;;;;;;;;;;10475345;28;20021;-58
2022/08/06 21:14:13;;;;;;;3.05;1.63;;;;;;;;;;10481553;28;20488;-57
2022/08/06 21:19:14;;;;;;;4.07;1.77;;;;;;;;;;10464501;28;20032;-57
2022/08/06 21:24:14;;;;;;;4.68;1.30;;;;;;;;;;10458137;28;20027;-58
2022/08/06 21:29:15;;;;;;;3.83;1.23;;;;;;;;;;10458035;28;20488;-58
2022/08/06 21:34:15;;;;;;;1.73;1.15;;;;;;;;;;10484000;28;20089;-56
2022/08/06 21:39:16;;;;;;;5.38;1.45;;;;;;;;;;10464661;28;20036;-58
2022/08/06 21:44:17;;;;;;;3.92;1.73;;;;;;;;;;10471223;28;20460;-57
2022/08/06 21:49:18;;;;;;;2.72;1.30;;;;;;;;;;10469458;28;20028;-57
2022/08/06 21:54:18;;;;;;;2.78;1.08;;;;;;;;;;10481530;28;20036;-55
2022/08/06 21:59:19;;;;;;;10.55;1.35;;;;;;;;;;10470671;28;20029;-53
2022/08/06 22:04:20;;;;;;;1.80;1.23;;;;;;;;;;10465770;28;20573;-57
2022/08/06 22:09:20;;;;;;;1.75;1.25;;;;;;;;;;10469604;28;20094;-50
2022/08/06 22:14:21;;;;;;;3.78;1.17;;;;;;;;;;10475226;28;20400;-57
2022/08/06 22:19:21;;;;;;;3.80;1.42;;;;;;;;;;10451783;28;20043;-55
2022/08/06 22:24:23;;;;;;;3.83;1.25;;;;;;;;;;10467220;28;20028;-53
2022/08/06 22:29:26;;;;;;;1.85;1.00;;;;;;;;;;10476518;28;20036;-57
2022/08/06 22:34:28;;;;;;;14.35;1.42;;;;;;;;;;10463571;28;20033;-45
2022/08/06 22:39:29;;;;;;;7.63;0.93;;;;;;;;;;10465842;28;20532;-47
2022/08/06 22:44:30;;;;;;;11.68;1.27;;;;;;;;;;10465118;28;20037;-46
2022/08/06 22:49:30;;;;;;;3.80;1.20;;;;;;;;;;10449139;28;20107;-46
2022/08/06 22:54:31;;;;;;;2.47;1.50;;;;;;;;;;10465765;28;20381;-45
2022/08/06 22:59:33;;;;;;;3.10;1.23;;;;;;;;;;10474259;28;20033;-46
2022/08/06 23:04:34;;;;;;;6.80;1.42;;;;;;;;;;10462104;28;20463;-46
2022/08/06 23:09:35;;;;;;;9.50;1.30;;;;;;;;;;10454311;28;20028;-46
2022/08/06 23:14:36;;;;;;;7.70;1.25;;;;;;;;;;10468881;28;20477;-46
2022/08/06 23:19:36;;;;;;;2.72;1.15;;;;;;;;;;10462536;28;20040;-45
2022/08/06 23:24:37;;;;;;;3.13;1.05;;;;;;;;;;10468592;28;20033;-45
2022/08/06 23:29:39;;;;;;;2.05;0.90;;;;;;;;;;10469183;28;20112;-45
2022/08/06 23:34:40;;;;;;;2.38;1.50;;;;;;;;;;10480303;28;20503;-46
2022/08/06 23:39:42;;;;;;;2.08;0.82;;;;;;;;;;10467592;28;20053;-45
2022/08/06 23:44:42;;;;;;;0.93;0.90;;;;;;;;;;10469951;28;20121;-46
2022/08/06 23:49:43;;;;;;;0.93;0.68;;;;;;;;;;10493949;28;20102;-45
2022/08/06 23:54:43;;;;;;;1.83;0.90;;;;;;;;;;10461507;28;20053;-49
2022/08/06 23:59:44;;;;;;;1.77;0.90;;;;;;;;;;10467260;28;20474;-45
